• Join FlightAware (Why Join?)
  • Login
  • US Flag 
01:51PM EST


 

Airport Tracker/Info


-or-


 

Live Flight TrackerFlight Track Log ✈ EGF4186 ✈ 09-May-2013 ✈ KMSN - KORD

Flight Track Log - Related Links

Times and Time Zones

All times are in EDT time to prevent confusion due to time zone crossing. See the EGF4186 flight status page for this flight to view local times or setup timezone preferences in your user account.

Time Position Orientation Groundspeed Altitude Reporting Facility
EDT Latitude Longitude Course Direction KTS MPH feet Rate Location/Type
07:10AM 43.2011 -89.2581 163° South 203 234 4,200  Level Chicago Center
07:11AM 42.9529 -89.2545 164° South  Level FlightAware Approximate
07:11AM 43.1389 -89.2239 158° South 244 281 5,900  Level Chicago Center
07:12AM 42.8919 -89.2333 180° South  Level FlightAware Approximate
07:12AM 43.0678 -89.2114 173° South 255 293 8,300  Level Chicago Center
07:13AM 42.8337 -89.2057 166° South  Level FlightAware Approximate
07:13AM 42.9964 -89.1953 171° South 261 300 10,400  Level Chicago Center
07:14AM 42.7717 -89.1888 170° South  Level FlightAware Approximate
07:14AM 42.9094 -89.1403 155° Southeast 316 364 11,000  Level Chicago Center
07:15AM 42.7020 -89.1633 163° South  Level FlightAware Approximate
07:15AM 42.8375 -89.0517 138° Southeast 347 399 11,000  Level Chicago Center
07:16AM 42.7647 -88.9636 138° Southeast 349 402 11,000  Level Chicago Center
07:17AM 42.6914 -88.8764 139° Southeast 351 404 11,000  Level Chicago Center
07:18AM 42.6175 -88.7878 139° Southeast 354 407 11,000 -246 Level Chicago Center
07:19AM 42.5425 -88.6989 139° Southeast 357 411 10,500 -492 Descending Chicago Center
07:20AM 42.4708 -88.6122 138° Southeast 347 399 10,000 -244 Descending Chicago Center
07:21AM 42.3986 -88.5286 139° Southeast 343 395 10,000  Level Chicago Center
07:22AM 42.3497 -88.4186 121° Southeast 349 402 10,000  Level Chicago Center
07:23AM 42.2886 -88.3017 125° Southeast 343 395 10,000  Level Chicago Center
07:24AM 42.2269 -88.1997 129° Southeast 350 403 10,000 -195 Level Chicago Center
07:25AM 42.1639 -88.1306 141° Southeast 308 354 9,600 -1,073 Descending Chicago Center
07:26AM 42.1144 -88.0556 132° Southeast 285 328 7,800 -1,769 Descending Chicago Center
07:26AM 42.1000 -88.0167 117° Southeast 275 316 7,300 -623 Descending Chicago TRACON
07:27AM 42.0833 -87.9333 105° East 245 282 7,000 -591 Descending Chicago TRACON
07:29AM 42.0833 -87.8333 90° East 236 272 6,000 -833 Descending Chicago TRACON